createdAt,value
2022-12-24T00:01:39.426Z,2.10
2022-12-24T00:04:08.318Z,2.00
2022-12-24T00:06:37.155Z,1.93
2022-12-24T00:09:05.705Z,1.77
2022-12-24T00:11:34.827Z,2.70
2022-12-24T00:14:03.531Z,1.80
2022-12-24T00:16:33.772Z,2.00
2022-12-24T00:19:02.212Z,2.53
2022-12-24T00:21:31.168Z,2.20
2022-12-24T00:23:59.434Z,2.20
2022-12-24T00:26:28.296Z,2.93
2022-12-24T00:28:57.380Z,2.57
2022-12-24T00:31:27.032Z,1.90
2022-12-24T00:33:57.181Z,2.07
2022-12-24T00:36:25.687Z,2.50
2022-12-24T00:38:54.473Z,2.40
2022-12-24T00:41:26.148Z,2.23
2022-12-24T00:43:57.964Z,2.43
2022-12-24T00:49:20.796Z,2.50
2022-12-24T00:51:49.359Z,2.33
2022-12-24T00:54:17.781Z,2.57
2022-12-24T00:56:46.318Z,2.03
2022-12-24T00:59:15.008Z,2.10
2022-12-24T01:01:43.492Z,2.20
2022-12-24T01:04:30.484Z,2.80
2022-12-24T01:07:00.420Z,1.87
2022-12-24T01:09:28.918Z,2.63
2022-12-24T01:11:57.355Z,2.43
2022-12-24T01:14:26.009Z,2.63
2022-12-24T01:16:54.631Z,2.83
2022-12-24T01:19:23.339Z,2.30
2022-12-24T01:21:53.382Z,2.70
2022-12-24T01:24:23.360Z,2.67
2022-12-24T01:26:51.901Z,2.60
2022-12-24T01:29:21.035Z,2.60
2022-12-24T01:31:49.883Z,2.57
2022-12-24T01:34:18.375Z,2.57
2022-12-24T01:36:47.262Z,2.90
2022-12-24T01:39:16.291Z,2.37
2022-12-24T01:42:38.227Z,2.47
2022-12-24T01:45:49.593Z,2.30
2022-12-24T01:48:29.404Z,2.37
2022-12-24T01:51:03.652Z,2.37
2022-12-24T01:53:35.342Z,2.50
2022-12-24T01:56:07.117Z,2.50
2022-12-24T01:58:41.260Z,2.40
2022-12-24T02:01:10.154Z,2.90
2022-12-24T02:03:39.391Z,3.27
2022-12-24T02:06:12.408Z,3.03
2022-12-24T02:08:41.412Z,2.93
2022-12-24T02:11:16.052Z,2.97
2022-12-24T02:13:56.326Z,3.00
2022-12-24T02:16:43.155Z,2.40
2022-12-24T02:19:46.448Z,2.90
2022-12-24T02:22:22.327Z,2.93
2022-12-24T02:25:40.288Z,2.93
2022-12-24T02:28:33.690Z,2.77
2022-12-24T02:31:11.748Z,2.60
2022-12-24T02:33:48.513Z,3.17
2022-12-24T02:36:30.154Z,2.87
2022-12-24T02:39:05.196Z,2.63
2022-12-24T02:41:51.151Z,2.70
2022-12-24T02:44:23.480Z,3.00
2022-12-24T02:46:56.058Z,2.63
2022-12-24T02:49:25.082Z,2.80
2022-12-24T02:51:53.487Z,2.83
2022-12-24T02:54:22.205Z,2.43
2022-12-24T02:57:15.025Z,2.43
2022-12-24T03:00:04.392Z,3.37
2022-12-24T03:03:07.670Z,3.10
2022-12-24T03:05:47.349Z,2.90
2022-12-24T03:08:30.383Z,2.33
2022-12-24T03:11:07.105Z,2.13
2022-12-24T03:13:35.892Z,3.70
2022-12-24T03:16:08.474Z,2.73
2022-12-24T03:18:43.513Z,2.70
2022-12-24T03:21:18.266Z,2.93
2022-12-24T03:23:46.841Z,2.93
2022-12-24T03:26:20.653Z,3.33
2022-12-24T03:28:50.977Z,2.70
2022-12-24T03:31:20.185Z,2.47
2022-12-24T03:33:51.271Z,2.53
2022-12-24T03:36:19.938Z,2.83
2022-12-24T03:38:48.271Z,3.60
2022-12-24T03:41:16.943Z,2.97
2022-12-24T03:43:45.330Z,3.43
2022-12-24T03:46:14.341Z,3.10
2022-12-24T03:48:42.805Z,3.43
2022-12-24T03:51:20.941Z,3.10
2022-12-24T03:53:49.795Z,2.40
2022-12-24T03:56:18.373Z,3.20
2022-12-24T03:58:47.520Z,3.20
2022-12-24T04:01:16.317Z,3.37
2022-12-24T04:03:45.576Z,2.57
2022-12-24T04:06:18.933Z,2.80
2022-12-24T04:08:47.574Z,2.43
2022-12-24T04:11:18.637Z,2.50
2022-12-24T04:13:47.541Z,2.23
2022-12-24T04:16:18.597Z,2.67
2022-12-24T04:18:47.597Z,2.57
2022-12-24T04:21:16.479Z,3.00
2022-12-24T04:23:48.531Z,2.60
2022-12-24T04:26:17.116Z,3.10
2022-12-24T04:28:45.975Z,2.80
2022-12-24T04:31:18.148Z,2.93
2022-12-24T04:33:47.407Z,3.20
2022-12-24T04:36:18.626Z,3.00
2022-12-24T04:38:50.468Z,2.70
2022-12-24T04:41:24.594Z,2.20
2022-12-24T04:43:54.833Z,2.70
2022-12-24T04:46:27.153Z,3.10
2022-12-24T04:48:56.658Z,3.03
2022-12-24T04:51:27.633Z,2.70
2022-12-24T04:53:58.953Z,3.00
2022-12-24T04:56:30.841Z,3.57
2022-12-24T04:59:01.393Z,3.00
2022-12-24T05:01:33.820Z,2.77
2022-12-24T05:04:03.093Z,2.40
2022-12-24T05:06:34.801Z,2.90
2022-12-24T05:09:05.658Z,3.27
2022-12-24T05:11:34.118Z,2.93
2022-12-24T05:14:03.280Z,2.37
2022-12-24T05:16:32.113Z,2.70
2022-12-24T05:19:00.569Z,3.10
2022-12-24T05:21:29.464Z,2.60
2022-12-24T05:24:15.678Z,3.00
2022-12-24T05:26:50.400Z,3.10
2022-12-24T05:29:19.696Z,2.33
2022-12-24T05:31:48.676Z,3.00
2022-12-24T05:34:18.651Z,3.27
2022-12-24T05:36:47.732Z,3.43
2022-12-24T05:39:18.491Z,3.00
2022-12-24T05:41:48.980Z,2.50
2022-12-24T05:44:18.112Z,2.77
2022-12-24T05:46:47.166Z,2.17
2022-12-24T05:49:16.185Z,2.93
2022-12-24T05:51:45.241Z,2.50
2022-12-24T05:54:13.729Z,2.70
2022-12-24T05:56:42.924Z,2.97
2022-12-24T05:59:13.402Z,2.47
2022-12-24T06:01:46.112Z,2.93
2022-12-24T06:04:15.367Z,2.90
2022-12-24T06:06:44.017Z,2.80
2022-12-24T06:09:13.358Z,2.77
2022-12-24T06:11:41.826Z,2.53
2022-12-24T06:14:10.491Z,3.10
2022-12-24T06:16:41.142Z,2.60
2022-12-24T06:19:09.638Z,2.07
2022-12-24T06:21:38.478Z,2.20
2022-12-24T06:24:07.792Z,2.93
2022-12-24T06:26:36.460Z,3.43
2022-12-24T06:29:05.063Z,2.53
2022-12-24T06:31:33.704Z,2.63
2022-12-24T06:34:04.350Z,3.23
2022-12-24T06:36:32.841Z,2.70
2022-12-24T06:39:02.071Z,3.30
2022-12-24T06:41:30.641Z,3.50
2022-12-24T06:43:59.529Z,3.93
2022-12-24T06:46:28.467Z,7.60
2022-12-24T06:48:57.419Z,8.50
2022-12-24T06:51:28.135Z,5.23
2022-12-24T06:53:56.584Z,3.17
2022-12-24T06:56:25.482Z,2.70
2022-12-24T06:58:53.859Z,2.67
2022-12-24T07:01:24.413Z,3.50
2022-12-24T07:03:53.204Z,3.20
2022-12-24T07:06:29.208Z,2.63
2022-12-24T07:08:57.882Z,3.70
2022-12-24T07:11:27.143Z,3.37
2022-12-24T07:13:55.560Z,4.33
2022-12-24T07:16:24.176Z,5.33
2022-12-24T07:18:52.707Z,3.50
2022-12-24T07:21:21.531Z,4.17
2022-12-24T07:23:51.423Z,5.40
2022-12-24T07:26:19.952Z,4.17
2022-12-24T07:28:49.374Z,4.23
2022-12-24T07:31:18.097Z,4.07
2022-12-24T07:33:46.581Z,7.87
2022-12-24T07:36:22.026Z,8.33
2022-12-24T07:38:52.725Z,4.17
2022-12-24T07:41:21.238Z,6.43
2022-12-24T07:43:49.718Z,4.23
2022-12-24T07:46:18.902Z,9.83
2022-12-24T07:48:47.722Z,4.03
2022-12-24T07:51:16.974Z,4.43
2022-12-24T07:53:47.990Z,3.57
2022-12-24T07:56:19.174Z,3.33
2022-12-24T07:58:47.714Z,3.63
2022-12-24T08:01:16.520Z,4.83
2022-12-24T08:03:45.580Z,4.03
2022-12-24T08:06:14.144Z,3.10
2022-12-24T08:08:42.482Z,3.53
2022-12-24T08:11:11.389Z,4.23
2022-12-24T08:13:42.063Z,4.13
2022-12-24T08:16:10.802Z,3.57
2022-12-24T08:18:39.967Z,3.67
2022-12-24T08:21:09.742Z,3.80
2022-12-24T08:23:39.122Z,3.77
2022-12-24T08:26:10.178Z,5.00
2022-12-24T08:28:40.295Z,3.63
2022-12-24T08:31:08.846Z,3.63
2022-12-24T08:33:37.926Z,3.80
2022-12-24T08:36:07.948Z,6.63
2022-12-24T08:38:36.313Z,3.70
2022-12-24T08:41:05.665Z,6.17
2022-12-24T08:43:33.962Z,3.67
2022-12-24T08:46:06.982Z,3.60
2022-12-24T08:48:35.640Z,3.80
2022-12-24T08:51:09.934Z,3.57
2022-12-24T08:53:38.689Z,3.93
2022-12-24T08:56:11.921Z,4.03
2022-12-24T09:03:28.069Z,7.17
2022-12-24T09:05:56.905Z,3.03
2022-12-24T09:08:25.328Z,5.80
2022-12-24T09:10:54.626Z,5.80
2022-12-24T09:13:23.803Z,5.43
2022-12-24T09:15:56.282Z,3.80
2022-12-24T09:18:27.093Z,3.63
2022-12-24T09:21:02.171Z,6.97
2022-12-24T09:23:31.766Z,3.53
2022-12-24T09:26:00.393Z,3.57
2022-12-24T09:28:30.316Z,3.90
2022-12-24T09:31:01.267Z,3.40
2022-12-24T09:33:35.336Z,2.90
2022-12-24T09:36:04.910Z,4.70
2022-12-24T09:38:35.128Z,3.27
2022-12-24T09:41:13.815Z,3.27
2022-12-24T09:43:52.295Z,4.00
2022-12-24T09:46:28.266Z,4.20
2022-12-24T09:49:05.060Z,4.17
2022-12-24T09:51:42.052Z,3.63
2022-12-24T09:54:20.203Z,3.17
2022-12-24T09:56:50.541Z,3.10
2022-12-24T09:59:24.521Z,3.90
2022-12-24T10:01:56.492Z,2.90
2022-12-24T10:04:33.887Z,3.37
2022-12-24T10:07:17.750Z,3.20
2022-12-24T10:09:58.039Z,3.23
2022-12-24T10:12:38.343Z,4.13
2022-12-24T10:15:22.059Z,3.60
2022-12-24T10:18:14.415Z,2.93
2022-12-24T10:20:53.750Z,3.30
2022-12-24T10:23:31.838Z,3.00
2022-12-24T10:26:14.660Z,3.53
2022-12-24T10:28:50.199Z,3.03
2022-12-24T10:31:25.316Z,3.00
2022-12-24T10:34:02.000Z,3.70
2022-12-24T10:36:33.723Z,3.20
2022-12-24T10:39:02.806Z,3.60
2022-12-24T10:41:33.897Z,4.83
2022-12-24T10:44:03.110Z,3.67
2022-12-24T10:46:40.166Z,3.80
2022-12-24T10:49:17.778Z,3.30
2022-12-24T10:51:58.175Z,3.47
2022-12-24T10:54:29.030Z,5.53
2022-12-24T10:57:00.485Z,5.63
2022-12-24T10:59:33.396Z,4.43
2022-12-24T11:02:03.917Z,4.23
2022-12-24T11:04:34.641Z,3.80
2022-12-24T11:07:07.699Z,6.53
2022-12-24T11:09:43.381Z,3.90
2022-12-24T11:12:24.801Z,4.30
2022-12-24T11:15:04.777Z,5.20
2022-12-24T11:17:35.054Z,4.20
2022-12-24T11:20:04.890Z,4.37
2022-12-24T11:22:35.620Z,3.40
2022-12-24T11:25:09.795Z,3.60
2022-12-24T11:27:46.164Z,3.10
2022-12-24T11:30:29.785Z,4.20
2022-12-24T11:33:22.692Z,4.10
2022-12-24T11:36:02.206Z,5.90
2022-12-24T11:38:35.895Z,4.47
2022-12-24T11:41:11.708Z,3.13
2022-12-24T11:43:46.430Z,4.30
2022-12-24T11:46:21.593Z,3.77
2022-12-24T11:49:08.265Z,2.90
2022-12-24T11:51:38.010Z,3.13
2022-12-24T11:54:17.744Z,3.70
2022-12-24T11:56:51.285Z,4.20
2022-12-24T11:59:26.669Z,3.43
2022-12-24T12:02:03.289Z,3.93
2022-12-24T12:04:38.143Z,3.47
2022-12-24T12:07:15.469Z,3.60
2022-12-24T12:09:52.257Z,2.80
2022-12-24T12:12:25.921Z,2.63
2022-12-24T12:15:01.781Z,2.10
2022-12-24T12:17:36.117Z,3.07
2022-12-24T12:20:15.391Z,2.83
2022-12-24T12:22:54.922Z,3.30
2022-12-24T12:25:34.089Z,2.63
2022-12-24T12:28:08.820Z,2.60
2022-12-24T12:30:41.920Z,3.10
2022-12-24T12:33:21.433Z,3.87
2022-12-24T12:35:52.148Z,3.60
2022-12-24T12:38:26.192Z,6.40
2022-12-24T12:41:25.064Z,4.93
2022-12-24T12:44:43.290Z,4.83
2022-12-24T12:48:01.310Z,3.67
2022-12-24T12:50:38.261Z,3.63
2022-12-24T12:53:44.288Z,5.07
2022-12-24T12:56:33.477Z,3.80
2022-12-24T12:59:29.861Z,3.67
2022-12-24T13:02:12.146Z,3.67
2022-12-24T13:05:22.356Z,4.07
2022-12-24T13:08:18.029Z,3.30
2022-12-24T13:11:40.513Z,3.20
2022-12-24T13:14:59.579Z,4.77
2022-12-24T13:17:56.047Z,4.17
2022-12-24T13:20:30.784Z,10.77
2022-12-24T13:23:02.887Z,8.03
2022-12-24T13:25:40.108Z,9.03
2022-12-24T13:28:35.712Z,5.27
2022-12-24T13:31:28.141Z,3.50
2022-12-24T13:34:01.601Z,8.43
2022-12-24T13:37:06.585Z,16.53
2022-12-24T13:40:18.671Z,15.90
2022-12-24T13:43:12.466Z,7.80
2022-12-24T13:45:50.049Z,18.80
2022-12-24T13:48:34.449Z,7.40
2022-12-24T13:51:26.458Z,8.57
2022-12-24T13:54:01.364Z,8.80
2022-12-24T13:56:33.311Z,5.17
2022-12-24T13:59:23.646Z,4.87
2022-12-24T14:01:54.041Z,3.90
2022-12-24T14:04:30.401Z,5.70
2022-12-24T14:07:01.217Z,4.87
2022-12-24T14:09:32.713Z,7.57
2022-12-24T14:12:48.257Z,6.47
2022-12-24T14:16:04.135Z,4.77
2022-12-24T14:18:40.853Z,5.90
2022-12-24T14:21:19.084Z,5.73
2022-12-24T14:23:57.141Z,4.50
2022-12-24T14:26:31.473Z,6.37
2022-12-24T14:29:08.143Z,5.17
2022-12-24T14:31:36.727Z,5.43
2022-12-24T14:34:11.574Z,4.27
2022-12-24T14:36:44.381Z,3.40
2022-12-24T14:39:26.879Z,3.90
2022-12-24T14:42:27.125Z,5.87
2022-12-24T14:45:08.846Z,7.10
2022-12-24T14:47:49.481Z,11.93
2022-12-24T14:50:46.860Z,7.37
2022-12-24T14:53:29.988Z,9.23
2022-12-24T14:55:58.491Z,11.70
2022-12-24T14:58:31.619Z,28.87
2022-12-24T15:01:03.356Z,21.53
2022-12-24T15:03:34.534Z,8.53
2022-12-24T15:06:11.185Z,10.47
2022-12-24T15:08:45.699Z,7.70
2022-12-24T15:11:19.521Z,6.80
2022-12-24T15:13:53.349Z,7.33
2022-12-24T15:16:27.330Z,6.13
2022-12-24T15:19:00.095Z,3.73
2022-12-24T15:21:35.027Z,3.67
2022-12-24T15:24:03.587Z,4.23
2022-12-24T15:26:36.659Z,5.43
2022-12-24T15:29:24.399Z,5.17
2022-12-24T15:31:57.993Z,3.57
2022-12-24T15:34:31.184Z,4.37
2022-12-24T15:37:08.916Z,5.27
2022-12-24T15:39:39.610Z,6.53
2022-12-24T15:42:18.124Z,6.00
2022-12-24T15:45:00.004Z,7.50
2022-12-24T15:47:38.030Z,9.20
2022-12-24T15:50:30.870Z,11.73
2022-12-24T15:53:23.187Z,13.23
2022-12-24T15:56:14.467Z,9.53
2022-12-24T15:59:07.512Z,8.30
2022-12-24T16:01:45.813Z,6.57
2022-12-24T16:04:46.358Z,5.53
2022-12-24T16:07:55.299Z,7.70
2022-12-24T16:10:47.888Z,6.10
2022-12-24T16:13:30.631Z,6.70
2022-12-24T16:16:13.992Z,8.57
2022-12-24T16:19:00.282Z,9.70
2022-12-24T16:21:40.682Z,6.40
2022-12-24T16:24:21.688Z,3.50
2022-12-24T16:29:41.930Z,3.83
2022-12-24T16:32:36.750Z,4.03
2022-12-24T16:35:15.305Z,4.83
2022-12-24T16:37:46.609Z,4.50
2022-12-24T16:40:27.315Z,3.50
2022-12-24T16:43:16.321Z,3.80
2022-12-24T16:45:50.468Z,3.10
2022-12-24T16:48:30.556Z,3.17
2022-12-24T16:51:03.991Z,3.10
2022-12-24T16:53:37.882Z,4.10
2022-12-24T16:56:13.954Z,5.63
2022-12-24T16:58:47.308Z,11.27
2022-12-24T17:01:18.392Z,5.20
2022-12-24T17:03:49.137Z,16.17
2022-12-24T17:06:21.700Z,10.50
2022-12-24T17:08:54.760Z,12.07
2022-12-24T17:11:27.727Z,5.03
2022-12-24T17:14:07.859Z,5.80
2022-12-24T17:16:38.331Z,4.73
2022-12-24T17:19:12.914Z,3.50
2022-12-24T17:21:46.211Z,15.63
2022-12-24T17:24:20.503Z,8.57
2022-12-24T17:26:51.954Z,9.80
2022-12-24T17:29:23.187Z,26.13
2022-12-24T17:31:53.226Z,31.47
2022-12-24T17:34:25.697Z,35.17
2022-12-24T17:36:56.685Z,25.80
2022-12-24T17:39:28.248Z,24.40
2022-12-24T17:42:00.179Z,16.00
2022-12-24T17:44:33.412Z,7.83
2022-12-24T17:47:09.697Z,6.60
2022-12-24T17:49:38.975Z,6.50
2022-12-24T17:52:10.928Z,6.80
2022-12-24T17:54:52.085Z,9.67
2022-12-24T17:57:22.933Z,15.50
2022-12-24T17:59:58.892Z,27.77
2022-12-24T18:02:31.238Z,29.50
2022-12-24T18:05:03.301Z,43.37
2022-12-24T18:07:34.888Z,26.90
2022-12-24T18:10:05.116Z,25.10
2022-12-24T18:12:37.836Z,30.10
2022-12-24T18:15:12.343Z,22.67
2022-12-24T18:17:43.367Z,18.20
2022-12-24T18:20:17.378Z,12.77
2022-12-24T18:22:48.723Z,13.17
2022-12-24T18:25:20.364Z,13.67
2022-12-24T18:27:51.214Z,11.07
2022-12-24T18:30:27.730Z,9.23
2022-12-24T18:32:59.778Z,11.63
2022-12-24T18:35:30.165Z,11.27
2022-12-24T18:38:04.151Z,8.53
2022-12-24T18:40:35.098Z,9.47
2022-12-24T18:43:05.108Z,7.50
2022-12-24T18:45:41.427Z,11.23
2022-12-24T18:48:15.687Z,25.17
2022-12-24T18:50:55.778Z,14.30
2022-12-24T18:53:26.162Z,8.90
2022-12-24T18:56:06.810Z,9.03
2022-12-24T18:58:38.699Z,8.93
2022-12-24T19:01:17.776Z,8.67
2022-12-24T19:03:49.909Z,9.53
2022-12-24T19:06:22.684Z,9.17
2022-12-24T19:08:58.267Z,12.77
2022-12-24T19:11:33.542Z,21.30
2022-12-24T19:14:07.393Z,13.90
2022-12-24T19:16:42.895Z,25.00
2022-12-24T19:19:14.246Z,20.90
2022-12-24T19:21:45.655Z,16.33
2022-12-24T19:24:16.479Z,16.60
2022-12-24T19:26:46.500Z,12.97
2022-12-24T19:29:18.699Z,14.27
2022-12-24T19:31:54.324Z,12.73
2022-12-24T19:34:24.254Z,11.80
2022-12-24T19:36:58.210Z,11.93
2022-12-24T19:39:32.403Z,10.13
2022-12-24T19:42:03.299Z,11.77
2022-12-24T19:44:36.180Z,17.20
2022-12-24T19:47:12.280Z,16.63
2022-12-24T19:49:42.953Z,27.20
2022-12-24T19:52:13.699Z,22.70
2022-12-24T19:54:44.458Z,14.13
2022-12-24T19:57:15.155Z,9.50
2022-12-24T19:59:46.660Z,9.07
2022-12-24T20:02:18.737Z,10.37
2022-12-24T20:04:49.488Z,13.07
2022-12-24T20:07:21.947Z,8.00
2022-12-24T20:09:51.791Z,11.13
2022-12-24T20:12:20.445Z,17.87
2022-12-24T20:14:50.918Z,16.33
2022-12-24T20:17:22.558Z,13.63
2022-12-24T20:19:52.598Z,10.43
2022-12-24T20:22:24.692Z,9.83
2022-12-24T20:25:00.752Z,10.47
2022-12-24T20:27:31.698Z,14.43
2022-12-24T20:30:01.229Z,20.10
2022-12-24T20:32:32.850Z,8.57
2022-12-24T20:35:02.734Z,7.10
2022-12-24T20:37:32.113Z,7.00
2022-12-24T20:40:02.390Z,6.80
2022-12-24T20:42:34.067Z,7.80
2022-12-24T20:45:05.527Z,5.40
2022-12-24T20:47:38.330Z,5.60
2022-12-24T20:50:11.070Z,5.60
2022-12-24T20:52:41.391Z,10.93
2022-12-24T20:55:10.875Z,15.13
2022-12-24T20:57:42.197Z,15.13
2022-12-24T21:00:13.132Z,15.17
2022-12-24T21:02:45.696Z,11.77
2022-12-24T21:05:17.169Z,10.07
2022-12-24T21:07:47.019Z,15.83
2022-12-24T21:10:18.290Z,11.90
2022-12-24T21:12:57.155Z,10.33
2022-12-24T21:15:32.140Z,10.83
2022-12-24T21:18:10.646Z,14.73
2022-12-24T21:20:44.022Z,18.87
2022-12-24T21:23:14.502Z,14.93
2022-12-24T21:25:43.454Z,14.57
2022-12-24T21:28:12.689Z,12.27
2022-12-24T21:30:43.660Z,10.17
2022-12-24T21:33:14.852Z,9.50
2022-12-24T21:35:48.289Z,9.30
2022-12-24T21:38:19.074Z,8.37
2022-12-24T21:40:58.054Z,5.67
2022-12-24T21:43:28.600Z,5.10
2022-12-24T21:45:58.115Z,5.27
2022-12-24T21:48:45.838Z,7.57
2022-12-24T21:51:15.198Z,10.50
2022-12-24T21:54:10.676Z,30.03
2022-12-24T21:56:53.916Z,9.87
2022-12-24T21:59:26.843Z,10.17
2022-12-24T22:01:57.997Z,10.63
2022-12-24T22:04:29.115Z,13.73
2022-12-24T22:07:15.263Z,17.33
2022-12-24T22:10:01.937Z,7.30
2022-12-24T22:12:35.398Z,6.57
2022-12-24T22:15:08.883Z,8.03
2022-12-24T22:17:39.763Z,9.27
2022-12-24T22:20:12.924Z,21.43
2022-12-24T22:22:43.369Z,10.10
2022-12-24T22:25:12.477Z,5.93
2022-12-24T22:27:42.721Z,4.03
2022-12-24T22:30:14.255Z,4.67
2022-12-24T22:32:44.242Z,4.10
2022-12-24T22:35:16.541Z,4.23
2022-12-24T22:37:46.793Z,4.77
2022-12-24T22:40:15.791Z,4.57
2022-12-24T22:42:45.583Z,4.03
2022-12-24T22:45:21.811Z,3.80
2022-12-24T22:47:51.839Z,3.10
2022-12-24T22:50:26.130Z,4.87
2022-12-24T22:52:56.545Z,3.73
2022-12-24T22:55:28.544Z,3.70
2022-12-24T22:57:57.644Z,6.13
2022-12-24T23:00:43.685Z,6.93
2022-12-24T23:03:13.982Z,6.30
2022-12-24T23:05:45.559Z,5.70
2022-12-24T23:08:15.736Z,6.30
2022-12-24T23:10:44.315Z,7.53
2022-12-24T23:13:32.947Z,7.43
2022-12-24T23:16:04.939Z,15.17
2022-12-24T23:18:34.994Z,10.43
2022-12-24T23:21:09.531Z,11.57
2022-12-24T23:23:39.855Z,10.00
2022-12-24T23:26:12.305Z,9.83
2022-12-24T23:28:42.688Z,9.00
2022-12-24T23:31:12.473Z,10.03
2022-12-24T23:33:42.412Z,10.57
2022-12-24T23:36:14.110Z,11.33
2022-12-24T23:38:43.034Z,9.73
2022-12-24T23:41:12.732Z,8.43
2022-12-24T23:43:41.877Z,7.73
2022-12-24T23:46:16.038Z,7.97
2022-12-24T23:48:46.084Z,10.73
2022-12-24T23:51:23.128Z,8.70
2022-12-24T23:53:53.601Z,6.37
2022-12-24T23:56:24.415Z,6.30
2022-12-24T23:58:54.006Z,5.93
